WetterOnline ( https://www.wetteronline.de )

Wetter aktuell Stein

Aktuelles Wetter: Roth (386m)

6-stündlich | Neueste Meldungen
Ortszeit Temperatur Wetter
Sa, 31.07. 20:00 21.2° C fast wolkenlos
Sa, 31.07. 14:00 23.4° C leicht bewölkt
Sa, 31.07. 8:00 17.6° C wolkig
Sa, 31.07. 2:00 17.9° C bewölkt
Fr, 30.07. 20:00 24.9° C wolkig
Fr, 30.07. 14:00 26.4° C wolkenlos
Fr, 30.07. 8:00 16.1° C leicht bewölkt
Fr, 30.07. 2:00 12.6° C wolkenlos
Ortszeit Temperatur Wetter
Sa, 31.07. 21:30 17.5° C wolkig
Sa, 31.07. 21:20 17.5° C wolkig
Sa, 31.07. 21:10 17.1° C leicht bewölkt
Sa, 31.07. 21:00 19.1° C wolkenlos
Sa, 31.07. 20:50 19.1° C wolkenlos
Sa, 31.07. 20:40 19.6° C wolkenlos
Sa, 31.07. 20:30 20.2° C wolkenlos
Sa, 31.07. 20:00 21.2° C fast wolkenlos
Sa, 31.07. 19:30 21.7° C wolkig
Sa, 31.07. 19:00 22.5° C wolkig
Sa, 31.07. 18:30 22.5° C bewölkt
Ortszeit Relative Feuchte Sichtweite
Sa, 31.07. 20:00 45% 60 km
Sa, 31.07. 14:00 41% 50 km
Sa, 31.07. 8:00 70% 50 km
Sa, 31.07. 2:00 88% 45 km
Fr, 30.07. 20:00 58% 45 km
Fr, 30.07. 14:00 42% 40 km
Fr, 30.07. 8:00 77% 40 km
Fr, 30.07. 2:00 93% 28 km
Ortszeit Relative Feuchte Sichtweite
Sa, 31.07. 21:30 61% >70 km
Sa, 31.07. 21:20 61% -
Sa, 31.07. 21:10 61% -
Sa, 31.07. 21:00 53% 60 km
Sa, 31.07. 20:50 53% -
Sa, 31.07. 20:40 51% -
Sa, 31.07. 20:30 49% >70 km
Sa, 31.07. 20:00 45% 60 km
Sa, 31.07. 19:30 45% 55 km
Sa, 31.07. 19:00 44% 60 km
Sa, 31.07. 18:30 43% 55 km
Ortszeit Niederschlagsmenge Niederschlagsart
Sa, 31.07. 20:00 0.0 l/m2 in 12 Std. -
Sa, 31.07. 14:00 0.0 l/m2 in 6 Std. -
Sa, 31.07. 8:00 0.1 l/m2 in 12 Std. Regen
Sa, 31.07. 2:00 0.1 l/m2 in 6 Std. Regen
Fr, 30.07. 20:00 0.0 l/m2 in 12 Std. -
Fr, 30.07. 14:00 0.0 l/m2 in 6 Std. -
Fr, 30.07. 8:00 0.0 l/m2 in 12 Std. -
Fr, 30.07. 2:00 0.0 l/m2 in 6 Std. -
Ortszeit Niederschlagsmenge Niederschlagsart
Sa, 31.07. 21:30 0.0 l/m2 in 1 Std. -
Sa, 31.07. 21:20 keine Meldung -
Sa, 31.07. 21:10 keine Meldung -
Sa, 31.07. 21:00 0.0 l/m2 in 1 Std. -
Sa, 31.07. 20:50 keine Meldung -
Sa, 31.07. 20:40 keine Meldung -
Sa, 31.07. 20:30 0.0 l/m2 in 1 Std. -
Sa, 31.07. 20:00 0.0 l/m2 in 1 Std. -
Sa, 31.07. 19:30 0.0 l/m2 in 1 Std. -
Sa, 31.07. 19:00 0.0 l/m2 in 1 Std. -
Sa, 31.07. 18:30 0.0 l/m2 in 1 Std. -
Ortszeit Stärke Spitze Richtung
km/h Bft. km/h Grad Sektor
Sa, 31.07. 20:00 13 3 33 290° W
Sa, 31.07. 14:00 18 3 43 270° W
Sa, 31.07. 8:00 13 3 22 240° SW
Sa, 31.07. 2:00 11 2 43 230° SW
Fr, 30.07. 20:00 7 2 32 280° W
Fr, 30.07. 14:00 24 4 39 250° W
Fr, 30.07. 8:00 0 0 7 - -
Fr, 30.07. 2:00 2 1 17 190° S
Ortszeit Stärke Spitze Richtung
km/h Bft. km/h Grad Sektor
Sa, 31.07. 21:30 6 1 7 270° W
Sa, 31.07. 21:20 6 1 - 270° W
Sa, 31.07. 21:10 7 2 - 300° NW
Sa, 31.07. 21:00 7 2 14 290° W
Sa, 31.07. 20:50 7 2 - 290° W
Sa, 31.07. 20:40 9 2 - 280° W
Sa, 31.07. 20:30 11 2 14 310° NW
Sa, 31.07. 20:00 13 3 26 290° W
Sa, 31.07. 19:30 15 3 26 310° NW
Sa, 31.07. 19:00 14 3 25 300° NW
Sa, 31.07. 18:30 15 3 22 300° NW
Ortszeit Untergrenze Bedeckung Gattung
total tief tief mittel hoch
Sa, 31.07. 20:00 9000 m 2/8 0/8 - - -
Sa, 31.07. 14:00 1500 m 3/8 3/8 - - -
Sa, 31.07. 8:00 1500 m 5/8 5/8 - - -
Sa, 31.07. 2:00 1500 m 8/8 7/8 - - -
Fr, 30.07. 20:00 7200 m 8/8 0/8 - - -
Fr, 30.07. 14:00 - 0/8 0/8 - - -
Fr, 30.07. 8:00 1500 m 4/8 4/8 - - -
Fr, 30.07. 2:00 - 0/8 0/8 - - -
Ortszeit Bedeckungsgrad in Achtel und Wolkenuntergrenze
Sa, 31.07. 21:30 5(1800m)
Sa, 31.07. 21:20 5(1800m)
Sa, 31.07. 21:10 3(1800m)
Sa, 31.07. 21:00 keine Wolken
Sa, 31.07. 20:50 keine Wolken
Sa, 31.07. 20:40 keine Wolken
Sa, 31.07. 20:30 keine Wolken
Sa, 31.07. 20:00 2(9000m)
Sa, 31.07. 19:30 2(6600m) 3(9000m) 7(9000m)
Sa, 31.07. 19:00 4(6300m) 7(8400m) 7(9000m)
Sa, 31.07. 18:30 7(6600m) 8(7500m) 8(7800m)
Ortszeit Luftdruck NN (hPa) Tendenz (hPa in 3 Std.)
Sa, 31.07. 20:00 1010 - 0,1
Sa, 31.07. 14:00 1010 - 0,1
Sa, 31.07. 8:00 1011 + 0,5
Sa, 31.07. 2:00 1010 + 0,7
Fr, 30.07. 20:00 1007 - 0,6
Fr, 30.07. 14:00 1010 - 1,5
Fr, 30.07. 8:00 1013 - 0,5
Fr, 30.07. 2:00 1014 - 0,2
Ortszeit Luftdruck NN (hPa) Tendenz (hPa in 3 Std.)
Sa, 31.07. 21:30 1011 + 0,7
Sa, 31.07. 21:20 1011 keine Meldung
Sa, 31.07. 21:10 1011 keine Meldung
Sa, 31.07. 21:00 1011 + 0,7
Sa, 31.07. 20:50 1011 keine Meldung
Sa, 31.07. 20:40 1011 keine Meldung
Sa, 31.07. 20:30 1010 + 0,4
Sa, 31.07. 20:00 1010 - 0,1
Sa, 31.07. 19:30 1010 - 0,4
Sa, 31.07. 19:00 1009 - 0,7
Sa, 31.07. 18:30 1009 - 0,9
Ortszeit Schneehöhe (cm)
Sa, 31.07. 20:00 -
Sa, 31.07. 14:00 -
Sa, 31.07. 8:00 -
Sa, 31.07. 2:00 -
Fr, 30.07. 20:00 -
Fr, 30.07. 14:00 -
Fr, 30.07. 8:00 -
Fr, 30.07. 2:00 -
Ortszeit Schneehöhe (cm)
Sa, 31.07. 21:30 -
Sa, 31.07. 21:20 -
Sa, 31.07. 21:10 -
Sa, 31.07. 21:00 -
Sa, 31.07. 20:50 -
Sa, 31.07. 20:40 -
Sa, 31.07. 20:30 -
Sa, 31.07. 20:00 -
Sa, 31.07. 19:30 -
Sa, 31.07. 19:00 -
Sa, 31.07. 18:30 -
Link zu dieser Seite / Seite empfehlen

Das Wetter in ...